Startpagina
METAR-TAF:

METAR-TAF

Vliegvelden :

Amman, Jordanië

breedte: 31-59N, lengte: 035-59E, hoogte: 767 m

Actueel weer

Dit bericht is 38 minuten geleden gemaakt, om 13:00 UTC
Wind 8 kt uit het westen
Temperatuur 25°C
Vochtigheid 28%
Druk 1015 hPa
Zicht: 5000 m
Heiigheid

METAR: OJAM 221300Z 27008KT 5000 HZ NSC 25/05 Q1015 NOSIG

Tijdstip: 16:38 (13:38 UTC)

Verwachting

Dit bericht is 2 uur en het 38 minuten geleden gemaakt, om 11:00 UTC
Verwachting geldig van 22 om 12 UTC tot 23 om 18 UTC
Wind 6 kt uit het westnoordwesten
Zicht: 5000 m
Weinig wolken op 3000 ft
Heiigheid
Tijdelijke
van 23 om 01 UTC tot 23 om 06 UTC
Wind 1 kt uit variabele richting
Zicht: 2500 m
nevel
Wijzigt naar
van 23 om 10 UTC tot 23 om 12 UTC
Wind 10 kt uit het zuiden
Zicht: 3000 m
Verspreide wolken op 3000 ft
verspreid stof

TAF: OJAM 221100Z 2212/2318 29006KT 5000 HZ FEW030 TEMPO 2301/2306 VRB01KT 2500 BR BECMG 2310/2312 17010KT 3000 DU SCT030

Waarnemingen en weersverwachtingen van meer dan 4000 vliegvelden (METAR en TAF).

De beschikbare stations zijn de gele en rode punten op de kaart.

Ga met uw muis naar het station om de naam te zien.

Klik dan om waarnemingen en weersverwachtingen te zien.

kaart wijzigen: klik op de groene knoppen met een zwart kruis om in te zoomen, op de groene knop met een streepje om uit te zoomen of op de groene pijlen voor aangrenzende kaarten.


METAR-TAF: